createdAt,value
2023-03-19T00:04:05.613Z,7.00
2023-03-19T00:09:10.845Z,6.90
2023-03-19T00:14:12.927Z,6.80
2023-03-19T00:19:15.670Z,6.80
2023-03-19T00:24:17.762Z,6.70
2023-03-19T00:29:19.611Z,6.70
2023-03-19T00:34:21.605Z,6.70
2023-03-19T00:39:23.514Z,6.70
2023-03-19T00:44:25.475Z,6.60
2023-03-19T00:49:27.292Z,6.60
2023-03-19T00:54:29.201Z,6.50
2023-03-19T00:59:31.011Z,6.50
2023-03-19T01:04:32.957Z,6.40
2023-03-19T01:09:35.952Z,6.40
2023-03-19T01:14:37.769Z,6.40
2023-03-19T01:19:39.969Z,6.30
2023-03-19T01:24:41.779Z,6.30
2023-03-19T01:29:43.553Z,6.20
2023-03-19T01:34:46.648Z,6.20
2023-03-19T01:39:48.517Z,6.20
2023-03-19T01:44:50.344Z,6.10
2023-03-19T01:49:56.703Z,6.10
2023-03-19T01:55:00.276Z,6.00
2023-03-19T02:00:04.990Z,6.00
2023-03-19T02:05:12.564Z,5.90
2023-03-19T02:10:17.026Z,5.90
2023-03-19T02:15:19.190Z,5.80
2023-03-19T02:20:33.297Z,5.70
2023-03-19T02:25:41.819Z,5.70
2023-03-19T02:30:44.291Z,5.60
2023-03-19T02:35:47.814Z,5.60
2023-03-19T02:40:53.043Z,5.60
2023-03-19T02:45:55.361Z,5.50
2023-03-19T02:50:57.188Z,5.40
2023-03-19T02:55:59.023Z,5.40
2023-03-19T03:01:01.491Z,5.30
2023-03-19T03:06:03.444Z,5.30
2023-03-19T03:11:05.382Z,5.20
2023-03-19T03:16:07.449Z,5.10
2023-03-19T03:21:10.217Z,5.00
2023-03-19T03:26:12.223Z,5.00
2023-03-19T03:31:14.507Z,4.90
2023-03-19T03:36:17.542Z,4.90
2023-03-19T03:41:19.393Z,4.90
2023-03-19T03:46:21.291Z,4.80
2023-03-19T03:51:23.111Z,4.80
2023-03-19T03:56:25.021Z,4.80
2023-03-19T04:01:27.549Z,4.70
2023-03-19T04:06:29.645Z,4.70
2023-03-19T04:11:31.451Z,4.60
2023-03-19T04:16:33.506Z,4.50
2023-03-19T04:21:35.412Z,4.50
2023-03-19T04:26:37.978Z,4.50
2023-03-19T04:31:39.801Z,4.50
2023-03-19T04:36:42.372Z,4.50
2023-03-19T04:41:45.250Z,4.40
2023-03-19T04:46:47.197Z,4.30
2023-03-19T04:51:48.998Z,4.20
2023-03-19T04:56:51.795Z,4.20
2023-03-19T05:01:53.604Z,4.20
2023-03-19T05:06:55.460Z,4.10
2023-03-19T05:11:57.339Z,4.10
2023-03-19T05:17:01.834Z,4.10
2023-03-19T05:22:03.627Z,4.10
2023-03-19T05:27:05.555Z,4.20
2023-03-19T05:32:07.943Z,4.30
2023-03-19T05:37:10.181Z,4.40
2023-03-19T05:42:12.265Z,4.50
2023-03-19T05:47:14.124Z,4.60
2023-03-19T05:52:16.311Z,4.70
2023-03-19T05:57:18.134Z,4.90
2023-03-19T06:02:20.472Z,5.00
2023-03-19T06:07:22.286Z,5.20
2023-03-19T06:12:24.828Z,5.50
2023-03-19T06:17:27.134Z,5.80
2023-03-19T06:22:28.998Z,6.00
2023-03-19T06:27:30.849Z,6.40
2023-03-19T06:32:32.796Z,6.70
2023-03-19T06:37:34.871Z,7.10
2023-03-19T06:42:37.318Z,7.40
2023-03-19T06:47:41.509Z,7.60
2023-03-19T06:52:43.899Z,7.80
2023-03-19T06:57:49.056Z,7.90
2023-03-19T07:02:51.154Z,8.00
2023-03-19T07:07:52.949Z,8.10
2023-03-19T07:12:54.866Z,8.40
2023-03-19T07:17:57.406Z,8.50
2023-03-19T07:22:59.307Z,8.70
2023-03-19T07:28:01.160Z,8.80
2023-03-19T07:33:03.064Z,8.90
2023-03-19T07:38:05.500Z,9.00
2023-03-19T07:43:07.413Z,9.00
2023-03-19T07:48:09.243Z,9.30
2023-03-19T07:53:11.180Z,9.30
2023-03-19T07:58:13.188Z,9.30
2023-03-19T08:03:15.141Z,9.50
2023-03-19T08:08:17.484Z,9.80
2023-03-19T08:13:19.319Z,9.90
2023-03-19T08:18:21.155Z,9.90
2023-03-19T08:23:22.942Z,10.20
2023-03-19T08:28:27.343Z,10.50
2023-03-19T08:33:29.117Z,10.70
2023-03-19T08:38:31.385Z,10.90
2023-03-19T08:43:34.713Z,11.10
2023-03-19T08:48:36.660Z,11.30
2023-03-19T08:53:38.837Z,11.60
2023-03-19T08:58:42.158Z,11.50
2023-03-19T09:03:45.399Z,11.50
2023-03-19T09:08:47.247Z,11.60
2023-03-19T09:13:51.944Z,11.60
2023-03-19T09:18:53.850Z,12.00
2023-03-19T09:23:55.948Z,12.00
2023-03-19T09:28:59.067Z,12.10
2023-03-19T09:34:00.946Z,12.40
2023-03-19T09:39:04.520Z,12.60
2023-03-19T09:44:13.691Z,12.50
2023-03-19T09:49:30.413Z,12.90
2023-03-19T09:54:53.587Z,13.30
2023-03-19T09:59:56.509Z,13.70
2023-03-19T10:05:24.647Z,13.80
2023-03-19T10:10:37.525Z,13.80
2023-03-19T10:15:41.058Z,13.70
2023-03-19T10:20:46.252Z,13.90
2023-03-19T10:25:48.623Z,14.40
2023-03-19T10:31:11.855Z,14.60
2023-03-19T10:36:16.129Z,14.10
2023-03-19T10:41:38.584Z,14.20
2023-03-19T10:46:41.086Z,14.00
2023-03-19T10:51:47.602Z,14.10
2023-03-19T10:56:50.806Z,14.30
2023-03-19T11:02:01.894Z,14.10
2023-03-19T11:07:10.450Z,14.60
2023-03-19T11:12:21.364Z,15.10
2023-03-19T11:17:39.737Z,15.10
2023-03-19T11:22:42.612Z,15.00
2023-03-19T11:27:45.169Z,15.20
2023-03-19T11:32:58.989Z,15.20
2023-03-19T11:38:02.300Z,15.10
2023-03-19T11:43:13.076Z,15.20
2023-03-19T11:48:15.523Z,15.30
2023-03-19T11:53:38.336Z,14.90
2023-03-19T11:58:56.114Z,15.00
2023-03-19T12:04:35.631Z,15.20
2023-03-19T12:10:01.812Z,15.10
2023-03-19T12:15:26.219Z,15.30
2023-03-19T12:20:38.286Z,15.70
2023-03-19T12:25:46.185Z,15.90
2023-03-19T12:31:04.285Z,16.00
2023-03-19T12:36:10.365Z,15.90
2023-03-19T12:41:28.277Z,15.30
2023-03-19T12:46:41.309Z,15.30
2023-03-19T12:52:23.630Z,15.40
2023-03-19T12:57:36.565Z,15.20
2023-03-19T13:03:11.025Z,15.20
2023-03-19T13:08:31.561Z,14.90
2023-03-19T13:13:42.858Z,14.90
2023-03-19T13:19:14.814Z,14.90
2023-03-19T13:24:34.924Z,14.80
2023-03-19T13:29:38.861Z,14.80
2023-03-19T13:34:40.889Z,15.00
2023-03-19T13:39:45.531Z,15.10
2023-03-19T13:44:57.846Z,15.10
2023-03-19T13:50:10.877Z,15.00
2023-03-19T13:55:46.577Z,15.10
2023-03-19T14:00:58.624Z,15.10
2023-03-19T14:06:03.822Z,15.00
2023-03-19T14:11:06.727Z,14.80
2023-03-19T14:16:30.471Z,14.70
2023-03-19T14:21:36.065Z,14.60
2023-03-19T14:26:41.893Z,14.50
2023-03-19T14:31:49.738Z,14.30
2023-03-19T14:37:23.453Z,14.30
2023-03-19T14:42:25.512Z,14.30
2023-03-19T14:47:34.023Z,14.30
2023-03-19T14:52:43.661Z,14.20
2023-03-19T14:57:45.504Z,14.40
2023-03-19T15:02:51.425Z,14.60
2023-03-19T15:07:56.136Z,14.70
2023-03-19T15:13:05.056Z,14.60
2023-03-19T15:18:16.292Z,14.50
2023-03-19T15:23:26.802Z,14.40
2023-03-19T15:28:32.292Z,14.40
2023-03-19T15:33:41.919Z,14.40
2023-03-19T15:38:47.666Z,14.40
2023-03-19T15:43:50.210Z,14.40
2023-03-19T15:48:55.575Z,14.30
2023-03-19T15:53:58.733Z,14.20
2023-03-19T15:59:01.015Z,14.20
2023-03-19T16:04:06.959Z,14.10
2023-03-19T16:09:33.169Z,14.00
2023-03-19T16:14:45.531Z,13.90
2023-03-19T16:19:50.357Z,13.80
2023-03-19T16:24:52.647Z,13.70
2023-03-19T16:29:59.233Z,13.60
2023-03-19T16:35:06.229Z,13.50
2023-03-19T16:40:14.202Z,13.40
2023-03-19T16:45:18.958Z,13.30
2023-03-19T16:50:24.014Z,13.10
2023-03-19T16:55:28.836Z,13.00
2023-03-19T17:00:32.148Z,12.70
2023-03-19T17:05:35.294Z,12.50
2023-03-19T17:10:39.911Z,12.30
2023-03-19T17:15:42.386Z,12.20
2023-03-19T17:20:50.993Z,12.00
2023-03-19T17:25:53.658Z,11.80
2023-03-19T17:30:55.705Z,11.70
2023-03-19T17:35:58.677Z,11.50
2023-03-19T17:41:00.566Z,11.40
2023-03-19T17:46:02.413Z,11.20
2023-03-19T17:51:04.549Z,11.10
2023-03-19T17:56:07.012Z,10.90
2023-03-19T18:01:17.665Z,10.70
2023-03-19T18:06:22.383Z,10.60
2023-03-19T18:11:24.206Z,10.50
2023-03-19T18:16:29.353Z,10.30
2023-03-19T18:21:31.412Z,10.20
2023-03-19T18:26:33.217Z,10.10
2023-03-19T18:31:35.072Z,9.80
2023-03-19T18:36:38.506Z,9.80
2023-03-19T18:41:40.589Z,9.70
2023-03-19T18:46:42.601Z,9.70
2023-03-19T18:52:00.750Z,9.70
2023-03-19T18:57:04.104Z,9.70
2023-03-19T19:02:37.254Z,9.70
2023-03-19T19:07:39.047Z,9.70
2023-03-19T19:12:42.955Z,9.70
2023-03-19T19:17:44.974Z,9.60
2023-03-19T19:22:47.715Z,9.50
2023-03-19T19:28:12.089Z,9.40
2023-03-19T19:33:18.999Z,9.40
2023-03-19T19:38:21.019Z,9.30
2023-03-19T19:43:30.773Z,9.30
2023-03-19T19:48:33.031Z,9.30
2023-03-19T19:53:35.482Z,9.20
2023-03-19T19:58:37.706Z,9.10
2023-03-19T20:03:39.680Z,9.10
2023-03-19T20:08:42.013Z,9.00
2023-03-19T20:13:49.436Z,8.90
2023-03-19T20:18:54.687Z,8.80
2023-03-19T20:23:58.805Z,8.60
2023-03-19T20:29:00.959Z,8.50
2023-03-19T20:34:05.288Z,8.40
2023-03-19T20:39:07.064Z,8.40
2023-03-19T20:44:09.898Z,8.30
2023-03-19T20:49:14.455Z,8.20
2023-03-19T20:54:16.342Z,8.20
2023-03-19T20:59:18.394Z,8.00
2023-03-19T21:04:20.913Z,8.00
2023-03-19T21:09:24.568Z,8.00
2023-03-19T21:14:27.377Z,7.90
2023-03-19T21:19:30.206Z,7.80
2023-03-19T21:24:32.227Z,7.70
2023-03-19T21:29:34.266Z,7.60
2023-03-19T21:34:36.439Z,7.60
2023-03-19T21:39:38.611Z,7.50
2023-03-19T21:44:40.850Z,7.40
2023-03-19T21:49:42.734Z,7.40
2023-03-19T21:54:44.574Z,7.20
2023-03-19T21:59:47.118Z,7.20
2023-03-19T22:04:50.324Z,7.20
2023-03-19T22:09:52.279Z,7.10
2023-03-19T22:14:54.756Z,7.10
2023-03-19T22:19:58.120Z,7.00
2023-03-19T22:25:00.410Z,6.90
2023-03-19T22:30:02.692Z,6.90
2023-03-19T22:35:05.009Z,6.70
2023-03-19T22:40:07.699Z,6.70
2023-03-19T22:45:19.321Z,6.60
2023-03-19T22:50:32.944Z,6.60
2023-03-19T22:55:37.130Z,6.50
2023-03-19T23:00:39.380Z,6.40
2023-03-19T23:05:43.788Z,6.30
2023-03-19T23:10:47.291Z,6.20
2023-03-19T23:15:53.625Z,6.10
2023-03-19T23:20:56.796Z,6.10
2023-03-19T23:25:58.787Z,6.00
2023-03-19T23:31:05.088Z,6.00
2023-03-19T23:36:07.213Z,5.90
2023-03-19T23:41:22.574Z,5.90
2023-03-19T23:46:24.748Z,5.80
2023-03-19T23:51:26.692Z,5.80
2023-03-19T23:56:28.561Z,5.70
